Xin Dan Dong — BPBY — position and weather

sailwx.info

Track history (hours):
 
Tides and Currents Weather Stations Pressure Air Temp Water Temp Dewpoint Dewpoint Depression Visibility Wind Speed Wind Dir Waves Ship Positions

Xin Dan Dong

Last reported at 2015-Jul-04 12:23 UTC. Time now 2015-Jul-04 15:15 UTC.
Position N 40°48' E 121°03'.

Length 263 m; draft 9.7 m.

Type: Cargo ship. MMSI: 413153000.

Date/timePositionNaut miles runAvg speedWind from/ knotsBaromVisibWave heightAir tempDewpointWater temp
2015-Jul-04 12:23N 40°48' E 121°03'0 0.0
2015-Jul-04 01:15N 40°48' E 121°03'46 5.6
2015-Jul-03 17:10N 40°17' E 121°47'812.2
2015-Jul-03 16:33N 40°18' E 121°57'7 6.7
2015-Jul-03 15:31N 40°16' E 122°06'0 0.0
2015-Jul-03 14:31N 40°16' E 122°06'0 0.0
2015-Jul-03 13:25N 40°16' E 122°06'0 0.0
2015-Jul-03 12:31N 40°16' E 122°06'0 0.0
2015-Jul-03 11:31N 40°16' E 122°06'0 0.0
2015-Jul-03 10:31N 40°16' E 122°06'0 0.0
2015-Jul-03 09:31N 40°16' E 122°06'5 1.6
2015-Jul-03 06:32N 40°18' E 121°60'105 8.1
2015-Jul-02 17:32N 38°46' E 120°53'1512.5
2015-Jul-02 16:19N 38°33' E 121°04'1112.6
2015-Jul-02 15:24N 38°27' E 121°16'1312.4
2015-Jul-02 14:21N 38°21' E 121°31'1012.3
2015-Jul-02 13:33N 38°15' E 121°41'1212.4
2015-Jul-02 12:33N 38°09' E 121°55'1312.7
2015-Jul-02 11:33N 38°02' E 122°09'1313.3
2015-Jul-02 10:33N 37°56' E 122°23'1413.8
2015-Jul-02 09:31N 37°49' E 122°39'1313.8
2015-Jul-02 08:33N 37°42' E 122°54'1313.2
2015-Jul-02 07:33N 37°35' E 123°08'1111.3
2015-Jul-02 06:33N 37°25' E 123°15'1212.2
2015-Jul-02 05:32N 37°13' E 123°14'1211.8
2015-Jul-02 04:32N 37°01' E 123°14'1111.8
2015-Jul-02 03:33N 36°49' E 123°14'26413.0
2015-Jul-01 07:20N 32°26' E 123°14'2312.3
2015-Jul-01 05:25N 32°02' E 123°14'43113.0
2015-Jun-29 20:08N 25°23' E 120°09'1414.3
2015-Jun-29 19:07N 25°12' E 119°58'814.6
2015-Jun-29 18:33N 25°06' E 119°52'3014.6
2015-Jun-29 16:30N 24°46' E 119°28'1313.7
2015-Jun-29 15:32N 24°37' E 119°17'5513.7
2015-Jun-29 11:33N 24°01' E 118°32'1414.3
2015-Jun-29 10:33N 23°51' E 118°20'1414.1
2015-Jun-29 09:33N 23°41' E 118°10'1514.5
2015-Jun-29 08:33N 23°31' E 117°58'3615.2
2015-Jun-29 06:11N 23°07' E 117°29'1012.9
2015-Jun-29 05:24N 22°60' E 117°21'16814.0
2015-Jun-28 17:22N 22°00' E 114°31'2413.1
2015-Jun-28 15:33N 21°57' E 114°06'1512.5
2015-Jun-28 14:23N 22°04' E 113°52'1113.4
2015-Jun-28 13:33N 22°15' E 113°48'1313.3
2015-Jun-28 12:33N 22°28' E 113°45'10 0.4
2015-Jun-27 08:33N 22°38' E 113°42'1414.4
2015-Jun-27 07:33N 22°24' E 113°46'1110.9
2015-Jun-27 06:33N 22°13' E 113°49'1313.2
2015-Jun-27 05:33N 22°00' E 113°53'27 1.2
2015-Jun-26 07:33N 21°59' E 114°22'24411.4
2015-Jun-25 10:08N 23°49' E 118°19'2012.2
2015-Jun-25 08:31N 24°02' E 118°34'1211.8
2015-Jun-25 07:32N 24°10' E 118°44'1211.7
2015-Jun-25 06:32N 24°18' E 118°53'1711.5
2015-Jun-25 05:05N 24°29' E 119°07'611.4
2015-Jun-25 04:33N 24°33' E 119°12'1611.0
2015-Jun-25 03:08N 24°43' E 119°25'3111.2
2015-Jun-25 00:19N 25°05' E 119°50'  
Track history (hours):
 
Tides and Currents Weather Stations Pressure Air Temp Water Temp Dewpoint Dewpoint Depression Visibility Wind Speed Wind Dir Waves Ship Positions

Xin Dan Dong

Last reported at 2015-Jul-04 12:23 UTC. Time now 2015-Jul-04 15:15 UTC.
Position N 40°48' E 121°03'.

Length 263 m; draft 9.7 m.

Type: Cargo ship. MMSI: 413153000.

Date/timePositionNaut miles runAvg speedWind from/ knotsBaromVisibWave heightAir tempDewpointWater temp
2015-Jul-04 12:23N 40°48' E 121°03'0 0.0
2015-Jul-04 01:15N 40°48' E 121°03'46 5.6
2015-Jul-03 17:10N 40°17' E 121°47'812.2
2015-Jul-03 16:33N 40°18' E 121°57'7 6.7
2015-Jul-03 15:31N 40°16' E 122°06'0 0.0
2015-Jul-03 14:31N 40°16' E 122°06'0 0.0
2015-Jul-03 13:25N 40°16' E 122°06'0 0.0
2015-Jul-03 12:31N 40°16' E 122°06'0 0.0
2015-Jul-03 11:31N 40°16' E 122°06'0 0.0
2015-Jul-03 10:31N 40°16' E 122°06'0 0.0
2015-Jul-03 09:31N 40°16' E 122°06'5 1.6
2015-Jul-03 06:32N 40°18' E 121°60'105 8.1
2015-Jul-02 17:32N 38°46' E 120°53'1512.5
2015-Jul-02 16:19N 38°33' E 121°04'1112.6
2015-Jul-02 15:24N 38°27' E 121°16'1312.4
2015-Jul-02 14:21N 38°21' E 121°31'1012.3
2015-Jul-02 13:33N 38°15' E 121°41'1212.4
2015-Jul-02 12:33N 38°09' E 121°55'1312.7
2015-Jul-02 11:33N 38°02' E 122°09'1313.3
2015-Jul-02 10:33N 37°56' E 122°23'1413.8
2015-Jul-02 09:31N 37°49' E 122°39'1313.8
2015-Jul-02 08:33N 37°42' E 122°54'1313.2
2015-Jul-02 07:33N 37°35' E 123°08'1111.3
2015-Jul-02 06:33N 37°25' E 123°15'1212.2
2015-Jul-02 05:32N 37°13' E 123°14'1211.8
2015-Jul-02 04:32N 37°01' E 123°14'1111.8
2015-Jul-02 03:33N 36°49' E 123°14'26413.0
2015-Jul-01 07:20N 32°26' E 123°14'2312.3
2015-Jul-01 05:25N 32°02' E 123°14'43113.0
2015-Jun-29 20:08N 25°23' E 120°09'1414.3
2015-Jun-29 19:07N 25°12' E 119°58'814.6
2015-Jun-29 18:33N 25°06' E 119°52'3014.6
2015-Jun-29 16:30N 24°46' E 119°28'1313.7
2015-Jun-29 15:32N 24°37' E 119°17'5513.7
2015-Jun-29 11:33N 24°01' E 118°32'1414.3
2015-Jun-29 10:33N 23°51' E 118°20'1414.1
2015-Jun-29 09:33N 23°41' E 118°10'1514.5
2015-Jun-29 08:33N 23°31' E 117°58'3615.2
2015-Jun-29 06:11N 23°07' E 117°29'1012.9
2015-Jun-29 05:24N 22°60' E 117°21'16814.0
2015-Jun-28 17:22N 22°00' E 114°31'2413.1
2015-Jun-28 15:33N 21°57' E 114°06'1512.5
2015-Jun-28 14:23N 22°04' E 113°52'1113.4
2015-Jun-28 13:33N 22°15' E 113°48'1313.3
2015-Jun-28 12:33N 22°28' E 113°45'10 0.4
2015-Jun-27 08:33N 22°38' E 113°42'1414.4
2015-Jun-27 07:33N 22°24' E 113°46'1110.9
2015-Jun-27 06:33N 22°13' E 113°49'1313.2
2015-Jun-27 05:33N 22°00' E 113°53'27 1.2
2015-Jun-26 07:33N 21°59' E 114°22'24411.4
2015-Jun-25 10:08N 23°49' E 118°19'2012.2
2015-Jun-25 08:31N 24°02' E 118°34'1211.8
2015-Jun-25 07:32N 24°10' E 118°44'1211.7
2015-Jun-25 06:32N 24°18' E 118°53'1711.5
2015-Jun-25 05:05N 24°29' E 119°07'611.4
2015-Jun-25 04:33N 24°33' E 119°12'1611.0
2015-Jun-25 03:08N 24°43' E 119°25'3111.2
2015-Jun-25 00:19N 25°05' E 119°50'  

Dump ship's entire track history